createdAt,value
2023-02-20T00:01:55.226Z,25.80
2023-02-20T00:04:24.504Z,28.08
2023-02-20T00:06:53.479Z,24.08
2023-02-20T00:09:22.383Z,25.35
2023-02-20T00:11:51.253Z,18.85
2023-02-20T00:14:20.202Z,20.50
2023-02-20T00:16:49.728Z,19.73
2023-02-20T00:19:19.027Z,26.55
2023-02-20T00:21:49.180Z,23.40
2023-02-20T00:24:18.969Z,23.63
2023-02-20T00:26:49.889Z,24.40
2023-02-20T00:29:20.292Z,23.80
2023-02-20T00:31:57.111Z,21.73
2023-02-20T00:34:28.989Z,23.52
2023-02-20T00:36:57.962Z,28.67
2023-02-20T00:39:26.925Z,29.20
2023-02-20T00:41:57.559Z,22.45
2023-02-20T00:44:27.428Z,22.90
2023-02-20T00:46:56.327Z,23.77
2023-02-20T00:49:25.205Z,23.98
2023-02-20T00:51:54.160Z,21.73
2023-02-20T00:54:23.156Z,21.70
2023-02-20T00:56:52.109Z,22.30
2023-02-20T00:59:20.992Z,19.95
2023-02-20T01:01:49.898Z,24.42
2023-02-20T01:04:18.848Z,25.45
2023-02-20T01:06:47.878Z,28.00
2023-02-20T01:09:19.991Z,29.08
2023-02-20T01:11:49.057Z,24.65
2023-02-20T01:14:18.165Z,20.08
2023-02-20T01:16:48.934Z,18.85
2023-02-20T01:19:18.082Z,19.88
2023-02-20T01:21:47.068Z,25.80
2023-02-20T01:24:16.284Z,24.13
2023-02-20T01:26:47.274Z,22.67
2023-02-20T01:29:16.926Z,16.65
2023-02-20T01:31:53.785Z,16.80
2023-02-20T01:34:23.174Z,26.08
2023-02-20T01:36:54.282Z,18.25
2023-02-20T01:39:26.359Z,17.35
2023-02-20T01:42:08.101Z,18.08
2023-02-20T01:44:38.964Z,18.23
2023-02-20T01:47:16.842Z,20.52
2023-02-20T01:49:57.891Z,27.38
2023-02-20T01:52:33.048Z,26.40
2023-02-20T01:55:12.215Z,20.20
2023-02-20T01:57:45.736Z,17.33
2023-02-20T02:00:21.104Z,17.50
2023-02-20T02:03:03.773Z,15.55
2023-02-20T02:05:34.349Z,16.58
2023-02-20T02:08:06.280Z,16.63
2023-02-20T02:10:42.372Z,16.65
2023-02-20T02:13:12.226Z,16.35
2023-02-20T02:15:41.146Z,16.13
2023-02-20T02:18:24.962Z,16.85
2023-02-20T02:21:06.144Z,17.17
2023-02-20T02:23:44.276Z,16.23
2023-02-20T02:26:19.112Z,15.88
2023-02-20T02:29:15.286Z,15.93
2023-02-20T02:32:05.664Z,16.17
2023-02-20T02:34:52.944Z,15.73
2023-02-20T02:37:24.873Z,14.57
2023-02-20T02:40:30.143Z,16.48
2023-02-20T02:43:19.721Z,16.58
2023-02-20T02:46:02.905Z,14.95
2023-02-20T02:48:58.671Z,16.25
2023-02-20T02:51:30.880Z,15.25
2023-02-20T02:54:18.017Z,14.00
2023-02-20T02:56:49.013Z,14.95
2023-02-20T02:59:28.444Z,14.93
2023-02-20T03:02:02.963Z,13.25
2023-02-20T03:04:34.074Z,13.80
2023-02-20T03:07:08.999Z,14.75
2023-02-20T03:09:43.170Z,13.88
2023-02-20T03:15:32.131Z,13.20
2023-02-20T03:18:01.232Z,14.35
2023-02-20T03:20:30.158Z,14.48
2023-02-20T03:23:04.340Z,14.20
2023-02-20T03:25:51.903Z,14.52
2023-02-20T03:28:32.842Z,12.90
2023-02-20T03:31:33.498Z,14.52
2023-02-20T03:34:28.429Z,14.07
2023-02-20T03:37:32.290Z,12.73
2023-02-20T03:40:24.936Z,12.65
2023-02-20T03:43:16.737Z,11.95
2023-02-20T03:45:47.716Z,13.02
2023-02-20T03:48:48.143Z,13.18
2023-02-20T03:51:17.825Z,12.27
2023-02-20T03:53:48.315Z,13.55
2023-02-20T03:56:22.791Z,12.45
2023-02-20T03:59:00.164Z,13.75
2023-02-20T04:01:29.930Z,12.38
2023-02-20T04:04:00.070Z,15.13
2023-02-20T04:06:34.463Z,15.40
2023-02-20T04:09:08.523Z,13.25
2023-02-20T04:12:04.673Z,15.07
2023-02-20T04:14:34.334Z,12.63
2023-02-20T04:17:11.647Z,14.25
2023-02-20T04:19:40.561Z,13.88
2023-02-20T04:22:17.226Z,14.38
2023-02-20T04:24:53.752Z,13.18
2023-02-20T04:27:23.409Z,12.98
2023-02-20T04:29:52.664Z,13.02
2023-02-20T04:32:21.947Z,13.45
2023-02-20T04:34:51.053Z,13.05
2023-02-20T04:37:24.461Z,14.60
2023-02-20T04:39:53.329Z,12.23
2023-02-20T04:42:22.198Z,12.95
2023-02-20T04:44:51.110Z,16.48
2023-02-20T04:47:20.639Z,15.52
2023-02-20T04:49:49.545Z,12.77
2023-02-20T04:52:21.835Z,12.43
2023-02-20T04:54:50.798Z,11.88
2023-02-20T04:57:20.726Z,12.00
2023-02-20T04:59:50.145Z,11.98
2023-02-20T05:02:21.630Z,11.95
2023-02-20T05:04:50.626Z,12.40
2023-02-20T05:07:19.844Z,11.35
2023-02-20T05:09:48.711Z,11.95
2023-02-20T05:12:17.699Z,12.23
2023-02-20T05:14:46.580Z,12.05
2023-02-20T05:17:15.551Z,12.95
2023-02-20T05:19:44.460Z,12.40
2023-02-20T05:22:23.846Z,12.10
2023-02-20T05:24:54.063Z,12.45
2023-02-20T05:27:25.223Z,13.63
2023-02-20T05:29:56.805Z,13.05
2023-02-20T05:32:28.971Z,13.25
2023-02-20T05:34:58.491Z,11.68
2023-02-20T05:37:29.221Z,13.25
2023-02-20T05:39:58.292Z,12.70
2023-02-20T05:42:27.164Z,13.70
2023-02-20T05:44:56.103Z,11.73
2023-02-20T05:47:25.003Z,13.27
2023-02-20T05:49:53.881Z,12.23
2023-02-20T05:52:22.754Z,11.80
2023-02-20T05:54:51.634Z,13.77
2023-02-20T05:57:20.557Z,13.48
2023-02-20T05:59:49.552Z,12.73
2023-02-20T06:02:20.900Z,12.15
2023-02-20T06:04:49.936Z,12.75
2023-02-20T06:07:18.981Z,16.88
2023-02-20T06:09:48.045Z,16.58
2023-02-20T06:12:17.097Z,15.48
2023-02-20T06:14:46.869Z,15.85
2023-02-20T06:17:15.737Z,11.35
2023-02-20T06:19:44.899Z,11.73
2023-02-20T06:22:14.164Z,11.85
2023-02-20T06:24:47.998Z,10.38
2023-02-20T06:27:19.052Z,12.27
2023-02-20T06:29:50.952Z,13.52
2023-02-20T06:32:19.918Z,12.07
2023-02-20T06:34:48.924Z,13.07
2023-02-20T06:37:18.689Z,12.30
2023-02-20T06:39:49.425Z,11.45
2023-02-20T06:42:18.519Z,12.23
2023-02-20T06:44:47.445Z,12.25
2023-02-20T06:47:19.378Z,11.93
2023-02-20T06:49:48.757Z,11.40
2023-02-20T06:52:17.887Z,11.18
2023-02-20T06:54:46.925Z,12.48
2023-02-20T06:57:16.712Z,11.80
2023-02-20T06:59:49.224Z,10.68
2023-02-20T07:02:19.480Z,10.57
2023-02-20T07:04:52.123Z,10.90
2023-02-20T07:07:21.388Z,14.23
2023-02-20T07:09:50.265Z,11.50
2023-02-20T07:12:19.220Z,16.33
2023-02-20T07:14:48.315Z,12.05
2023-02-20T07:17:17.235Z,11.05
2023-02-20T07:19:46.160Z,11.15
2023-02-20T07:22:15.169Z,10.98
2023-02-20T07:24:44.195Z,11.20
2023-02-20T07:27:14.827Z,11.57
2023-02-20T07:29:46.383Z,11.82
2023-02-20T07:32:16.357Z,11.60
2023-02-20T07:35:01.110Z,10.98
2023-02-20T07:37:32.794Z,9.32
2023-02-20T07:40:01.687Z,10.18
2023-02-20T07:42:30.593Z,11.48
2023-02-20T07:44:59.573Z,10.15
2023-02-20T07:47:28.483Z,11.20
2023-02-20T07:49:57.453Z,12.13
2023-02-20T07:52:26.955Z,11.57
2023-02-20T07:55:18.367Z,10.32
2023-02-20T07:57:55.552Z,10.60
2023-02-20T08:00:25.018Z,10.55
2023-02-20T08:02:54.505Z,10.52
2023-02-20T08:05:23.731Z,10.20
2023-02-20T08:07:53.562Z,10.98
2023-02-20T08:10:28.489Z,9.43
2023-02-20T08:12:58.298Z,9.15
2023-02-20T08:15:27.185Z,9.23
2023-02-20T08:17:56.105Z,10.00
2023-02-20T08:20:25.134Z,10.15
2023-02-20T08:22:54.733Z,9.93
2023-02-20T08:25:23.783Z,11.35
2023-02-20T08:27:52.704Z,10.98
2023-02-20T08:30:34.396Z,10.07
2023-02-20T08:33:07.262Z,11.05
2023-02-20T08:35:39.719Z,11.63
2023-02-20T08:38:24.035Z,12.48
2023-02-20T08:40:53.337Z,10.43
2023-02-20T08:43:23.112Z,10.93
2023-02-20T08:45:52.369Z,11.25
2023-02-20T08:48:21.476Z,11.32
2023-02-20T08:50:53.948Z,11.45
2023-02-20T08:53:23.484Z,10.05
2023-02-20T08:55:52.491Z,11.55
2023-02-20T08:58:23.984Z,10.63
2023-02-20T09:00:53.866Z,10.68
2023-02-20T09:03:23.187Z,10.77
2023-02-20T09:05:52.134Z,11.15
2023-02-20T09:08:36.471Z,11.20
2023-02-20T09:11:05.815Z,11.63
2023-02-20T09:13:34.815Z,10.88
2023-02-20T09:16:03.751Z,11.70
2023-02-20T09:18:34.627Z,11.10
2023-02-20T09:21:03.544Z,11.02
2023-02-20T09:23:32.413Z,11.73
2023-02-20T09:26:01.391Z,11.00
2023-02-20T09:28:30.338Z,11.95
2023-02-20T09:31:01.622Z,12.48
2023-02-20T09:33:30.627Z,12.07
2023-02-20T09:35:59.626Z,10.30
2023-02-20T09:38:30.516Z,12.52
2023-02-20T09:41:01.354Z,11.55
2023-02-20T09:43:45.248Z,10.80
2023-02-20T09:49:01.310Z,10.98
2023-02-20T09:51:34.632Z,10.75
2023-02-20T09:54:19.040Z,11.52
2023-02-20T09:56:55.919Z,10.88
2023-02-20T09:59:33.570Z,10.05
2023-02-20T10:02:26.331Z,10.35
2023-02-20T10:05:03.384Z,11.35
2023-02-20T10:07:52.286Z,10.80
2023-02-20T10:10:22.908Z,11.43
2023-02-20T10:12:59.017Z,11.18
2023-02-20T10:15:56.709Z,11.65
2023-02-20T10:18:35.226Z,11.40
2023-02-20T10:21:35.297Z,11.90
2023-02-20T10:24:37.668Z,10.77
2023-02-20T10:27:24.759Z,10.65
2023-02-20T10:29:57.760Z,10.57
2023-02-20T10:32:37.367Z,11.05
2023-02-20T10:35:14.462Z,10.95
2023-02-20T10:37:49.500Z,11.02
2023-02-20T10:40:50.073Z,12.10
2023-02-20T10:43:25.544Z,13.85
2023-02-20T10:45:57.442Z,12.95
2023-02-20T10:48:30.776Z,14.13
2023-02-20T10:51:15.805Z,13.07
2023-02-20T10:54:08.572Z,12.10
2023-02-20T10:57:01.444Z,13.38
2023-02-20T10:59:52.480Z,10.95
2023-02-20T11:02:25.832Z,11.95
2023-02-20T11:05:01.742Z,12.45
2023-02-20T11:07:30.865Z,13.27
2023-02-20T11:10:00.079Z,12.20
2023-02-20T11:12:52.235Z,12.23
2023-02-20T11:15:25.708Z,15.15
2023-02-20T11:17:57.449Z,15.68
2023-02-20T11:20:39.795Z,16.27
2023-02-20T11:23:09.382Z,18.23
2023-02-20T11:25:43.159Z,13.98
2023-02-20T11:30:54.499Z,13.10
2023-02-20T11:33:26.518Z,12.38
2023-02-20T11:36:00.120Z,12.73
2023-02-20T11:38:32.889Z,13.48
2023-02-20T11:41:13.313Z,14.27
2023-02-20T11:44:00.619Z,14.20
2023-02-20T11:46:30.222Z,14.25
2023-02-20T11:49:01.529Z,13.73
2023-02-20T11:51:36.398Z,15.27
2023-02-20T11:54:18.964Z,14.48
2023-02-20T11:57:09.622Z,15.32
2023-02-20T11:59:47.961Z,14.57
2023-02-20T12:02:19.863Z,14.77
2023-02-20T12:05:11.490Z,15.82
2023-02-20T12:07:45.488Z,16.23
2023-02-20T12:10:23.782Z,16.13
2023-02-20T12:12:53.682Z,16.60
2023-02-20T12:15:26.000Z,20.27
2023-02-20T12:18:18.039Z,20.45
2023-02-20T12:20:55.067Z,20.70
2023-02-20T12:23:33.617Z,22.27
2023-02-20T12:26:28.353Z,22.77
2023-02-20T12:29:12.480Z,21.60
2023-02-20T12:32:01.850Z,20.88
2023-02-20T12:34:33.939Z,21.35
2023-02-20T12:37:34.332Z,20.48
2023-02-20T12:40:28.341Z,21.30
2023-02-20T12:43:25.374Z,22.52
2023-02-20T12:46:08.928Z,22.17
2023-02-20T12:48:43.622Z,19.90
2023-02-20T12:51:27.807Z,20.02
2023-02-20T12:56:40.912Z,21.23
2023-02-20T12:59:24.084Z,22.77
2023-02-20T13:01:54.993Z,22.33
2023-02-20T13:04:52.495Z,25.70
2023-02-20T13:07:31.494Z,22.80
2023-02-20T13:10:25.367Z,21.45
2023-02-20T13:12:55.514Z,20.35
2023-02-20T13:15:28.811Z,20.55
2023-02-20T13:18:18.750Z,22.00
2023-02-20T13:20:55.151Z,21.83
2023-02-20T13:23:24.015Z,20.67
2023-02-20T13:25:54.644Z,21.60
2023-02-20T13:28:49.470Z,21.50
2023-02-20T13:31:24.802Z,22.02
2023-02-20T13:34:08.970Z,20.67
2023-02-20T13:36:37.894Z,22.30
2023-02-20T13:39:28.460Z,22.45
2023-02-20T13:41:57.360Z,22.33
2023-02-20T13:44:41.631Z,22.02
2023-02-20T13:49:59.329Z,26.42
2023-02-20T13:52:43.208Z,27.02
2023-02-20T13:55:12.085Z,25.80
2023-02-20T13:58:07.986Z,26.92
2023-02-20T14:00:57.919Z,32.42
2023-02-20T14:03:33.095Z,28.40
2023-02-20T14:06:12.435Z,26.63
2023-02-20T14:08:46.627Z,26.88
2023-02-20T14:14:32.101Z,23.73
2023-02-20T14:17:17.336Z,23.48
2023-02-20T14:19:48.867Z,23.45
2023-02-20T14:22:36.829Z,24.33
2023-02-20T14:25:31.478Z,26.95
2023-02-20T14:28:17.929Z,23.70
2023-02-20T14:30:46.848Z,24.95
2023-02-20T14:33:30.159Z,25.05
2023-02-20T14:36:30.826Z,23.13
2023-02-20T14:39:15.050Z,22.90
2023-02-20T14:42:00.416Z,22.27
2023-02-20T14:44:31.465Z,22.25
2023-02-20T14:47:15.013Z,22.00
2023-02-20T14:49:44.140Z,22.20
2023-02-20T14:52:13.306Z,21.65
2023-02-20T14:54:58.054Z,23.00
2023-02-20T14:57:28.157Z,23.05
2023-02-20T15:00:21.748Z,22.40
2023-02-20T15:02:55.805Z,20.77
2023-02-20T15:05:32.101Z,21.98
2023-02-20T15:08:16.434Z,22.10
2023-02-20T15:13:20.017Z,26.60
2023-02-20T15:15:54.823Z,26.20
2023-02-20T15:18:43.432Z,26.85
2023-02-20T15:21:14.661Z,23.58
2023-02-20T15:23:46.247Z,22.85
2023-02-20T15:26:32.325Z,24.33
2023-02-20T15:29:24.623Z,23.17
2023-02-20T15:32:01.895Z,22.20
2023-02-20T15:34:36.369Z,22.92
2023-02-20T15:37:34.081Z,21.60
2023-02-20T15:40:29.964Z,20.08
2023-02-20T15:42:59.780Z,19.23
2023-02-20T15:45:31.294Z,20.25
2023-02-20T15:48:00.590Z,18.15
2023-02-20T15:50:29.594Z,19.30
2023-02-20T15:52:59.769Z,19.38
2023-02-20T15:55:30.035Z,21.08
2023-02-20T15:58:01.709Z,19.40
2023-02-20T16:00:33.967Z,18.00
2023-02-20T16:03:03.647Z,19.42
2023-02-20T16:05:32.580Z,20.58
2023-02-20T16:08:01.454Z,19.48
2023-02-20T16:10:30.459Z,19.15
2023-02-20T16:13:01.910Z,18.10
2023-02-20T16:15:30.844Z,18.27
2023-02-20T16:17:59.733Z,19.58
2023-02-20T16:20:31.298Z,20.30
2023-02-20T16:23:01.324Z,19.98
2023-02-20T16:25:30.296Z,19.65
2023-02-20T16:27:59.220Z,20.25
2023-02-20T16:30:48.224Z,19.38
2023-02-20T16:33:18.561Z,20.60
2023-02-20T16:35:49.508Z,20.48
2023-02-20T16:38:18.704Z,20.83
2023-02-20T16:40:48.016Z,21.00
2023-02-20T16:43:17.275Z,20.77
2023-02-20T16:45:46.152Z,19.85
2023-02-20T16:48:18.722Z,19.92
2023-02-20T16:50:52.287Z,21.00
2023-02-20T16:53:22.321Z,21.05
2023-02-20T16:55:53.292Z,21.35
2023-02-20T16:58:22.177Z,20.55
2023-02-20T17:00:57.387Z,19.52
2023-02-20T17:03:28.724Z,20.52
2023-02-20T17:06:00.796Z,21.65
2023-02-20T17:08:30.225Z,21.02
2023-02-20T17:10:59.201Z,20.70
2023-02-20T17:13:28.138Z,18.63
2023-02-20T17:15:57.015Z,19.50
2023-02-20T17:18:26.110Z,20.17
2023-02-20T17:20:55.293Z,20.35
2023-02-20T17:23:24.248Z,21.10
2023-02-20T17:25:53.143Z,19.48
2023-02-20T17:28:22.239Z,21.85
2023-02-20T17:30:55.652Z,19.42
2023-02-20T17:33:26.169Z,20.13
2023-02-20T17:35:55.242Z,19.13
2023-02-20T17:38:25.480Z,19.02
2023-02-20T17:40:54.336Z,18.85
2023-02-20T17:43:23.257Z,18.85
2023-02-20T17:45:52.327Z,19.58
2023-02-20T17:48:21.240Z,19.10
2023-02-20T17:50:50.165Z,18.17
2023-02-20T17:53:19.183Z,18.23
2023-02-20T17:55:48.322Z,16.77
2023-02-20T17:58:17.211Z,18.33
2023-02-20T18:00:47.027Z,18.20
2023-02-20T18:03:16.029Z,17.80
2023-02-20T18:05:45.094Z,17.73
2023-02-20T18:08:14.465Z,17.42
2023-02-20T18:10:43.337Z,17.65
2023-02-20T18:13:12.243Z,18.38
2023-02-20T18:15:43.020Z,18.60
2023-02-20T18:18:14.611Z,18.23
2023-02-20T18:20:43.966Z,18.25
2023-02-20T18:23:12.988Z,18.67
2023-02-20T18:25:41.888Z,17.83
2023-02-20T18:28:11.810Z,19.02
2023-02-20T18:30:41.833Z,18.52
2023-02-20T18:33:10.847Z,18.15
2023-02-20T18:35:39.822Z,19.25
2023-02-20T18:38:09.925Z,19.90
2023-02-20T18:40:39.034Z,18.38
2023-02-20T18:43:09.538Z,17.80
2023-02-20T18:45:38.509Z,18.70
2023-02-20T18:48:07.758Z,18.65
2023-02-20T18:50:36.750Z,18.35
2023-02-20T18:53:05.784Z,17.50
2023-02-20T18:55:34.741Z,18.73
2023-02-20T18:58:03.708Z,16.45
2023-02-20T19:00:35.731Z,17.80
2023-02-20T19:03:05.491Z,17.83
2023-02-20T19:05:34.483Z,17.15
2023-02-20T19:08:05.446Z,15.82
2023-02-20T19:10:34.630Z,16.40
2023-02-20T19:13:03.783Z,16.70
2023-02-20T19:15:32.685Z,16.83
2023-02-20T19:18:01.572Z,15.05
2023-02-20T19:20:34.084Z,15.18
2023-02-20T19:23:04.762Z,16.73
2023-02-20T19:25:33.793Z,15.32
2023-02-20T19:28:02.839Z,16.15
2023-02-20T19:30:31.824Z,15.82
2023-02-20T19:33:00.760Z,14.57
2023-02-20T19:35:29.729Z,16.98
2023-02-20T19:37:58.837Z,16.20
2023-02-20T19:40:27.942Z,14.13
2023-02-20T19:42:57.956Z,15.02
2023-02-20T19:45:26.820Z,15.50
2023-02-20T19:47:55.687Z,16.17
2023-02-20T19:50:24.630Z,15.15
2023-02-20T19:52:53.509Z,15.93
2023-02-20T19:55:23.226Z,13.77
2023-02-20T19:57:52.156Z,15.20
2023-02-20T20:00:23.812Z,14.73
2023-02-20T20:02:55.907Z,15.38
2023-02-20T20:05:25.191Z,14.95
2023-02-20T20:07:54.039Z,14.50
2023-02-20T20:10:23.976Z,15.90
2023-02-20T20:12:52.958Z,15.68
2023-02-20T20:15:25.827Z,16.35
2023-02-20T20:17:57.732Z,16.65
2023-02-20T20:20:27.655Z,15.88
2023-02-20T20:22:59.937Z,15.68
2023-02-20T20:25:29.209Z,16.30
2023-02-20T20:28:02.111Z,15.88
2023-02-20T20:30:32.580Z,15.40
2023-02-20T20:33:02.433Z,16.13
2023-02-20T20:35:31.839Z,16.00
2023-02-20T20:38:01.525Z,16.52
2023-02-20T20:40:31.160Z,15.70
2023-02-20T20:43:00.384Z,15.45
2023-02-20T20:45:29.318Z,16.27
2023-02-20T20:47:58.208Z,15.27
2023-02-20T20:50:29.188Z,16.63
2023-02-20T20:53:01.872Z,15.60
2023-02-20T20:55:31.473Z,16.17
2023-02-20T20:58:00.345Z,16.08
2023-02-20T21:00:32.283Z,14.88
2023-02-20T21:03:01.592Z,15.63
2023-02-20T21:05:33.073Z,16.23
2023-02-20T21:08:02.910Z,15.18
2023-02-20T21:10:31.881Z,14.95
2023-02-20T21:13:00.835Z,15.80
2023-02-20T21:15:30.234Z,16.38
2023-02-20T21:17:59.420Z,15.25
2023-02-20T21:20:32.093Z,15.98
2023-02-20T21:23:05.928Z,15.30
2023-02-20T21:25:34.872Z,15.38
2023-02-20T21:28:03.903Z,15.25
2023-02-20T21:30:32.940Z,16.42
2023-02-20T21:33:01.929Z,15.98
2023-02-20T21:35:30.852Z,16.05
2023-02-20T21:37:59.745Z,14.27
2023-02-20T21:40:28.828Z,16.38
2023-02-20T21:43:16.000Z,15.40
2023-02-20T21:45:45.617Z,14.60
2023-02-20T21:48:14.691Z,15.52
2023-02-20T21:50:43.637Z,16.17
2023-02-20T21:53:17.155Z,15.43
2023-02-20T21:55:47.182Z,16.08
2023-02-20T21:58:16.630Z,16.83
2023-02-20T22:00:46.969Z,24.63
2023-02-20T22:03:15.628Z,24.90
2023-02-20T22:05:44.277Z,24.98
2023-02-20T22:08:31.118Z,20.63
2023-02-20T22:11:20.018Z,14.65
2023-02-20T22:14:07.301Z,14.85
2023-02-20T22:16:54.337Z,16.17
2023-02-20T22:19:41.597Z,14.93
2023-02-20T22:22:28.832Z,16.52
2023-02-20T22:25:15.879Z,16.02
2023-02-20T22:28:03.018Z,15.05
2023-02-20T22:30:51.650Z,17.00
2023-02-20T22:33:39.872Z,22.15
2023-02-20T22:36:27.212Z,21.10
2023-02-20T22:39:14.183Z,19.73
2023-02-20T22:42:01.464Z,19.10
2023-02-20T22:44:48.561Z,24.88
2023-02-20T22:47:35.538Z,19.30
2023-02-20T22:50:23.434Z,19.65
2023-02-20T22:53:10.974Z,20.77
2023-02-20T22:55:57.989Z,17.30
2023-02-20T22:58:45.460Z,19.75
2023-02-20T23:01:32.487Z,17.77
2023-02-20T23:04:19.567Z,21.45
2023-02-20T23:07:06.727Z,18.67
2023-02-20T23:09:53.996Z,17.92
2023-02-20T23:12:40.944Z,19.98
2023-02-20T23:15:28.629Z,21.67
2023-02-20T23:18:15.552Z,19.38
2023-02-20T23:21:02.807Z,18.58
2023-02-20T23:23:49.853Z,20.10
2023-02-20T23:26:36.963Z,19.00
2023-02-20T23:29:24.157Z,20.35
2023-02-20T23:32:11.668Z,19.10
2023-02-20T23:34:58.646Z,18.45
2023-02-20T23:37:45.932Z,19.02
2023-02-20T23:40:36.728Z,19.77
2023-02-20T23:43:28.318Z,26.45
2023-02-20T23:46:15.201Z,28.00
2023-02-20T23:49:02.940Z,26.50
2023-02-20T23:51:52.058Z,27.65
2023-02-20T23:54:39.816Z,29.13
2023-02-20T23:57:27.025Z,29.65
